METAR & TAF

RJTY 241304Z AUTO 18004KT 10SM SCT018 BKN085 21/18 A3004 RMK AO2 SLP171 FZRANO $
RJTY 241256Z AUTO 17005KT 10SM R18/4500FT BKN019 21/18 A3004 RMK AO2 BKN V OVC SLP171 T02110177 FZRANO $
RJTY 241236Z AUTO 18005KT 10SM R18/4500FT OVC019 21/17 A3004 RMK AO2 SLP171 FZRANO $
RJTY 241221Z AUTO 15004KT 10SM R18/4500FT BKN020 21/18 A3004 RMK AO2 BKN V FEW SLP171 FZRANO $
RJTY 241156Z AUTO 16005KT 10SM R18/4500FT CLR 21/18 A3004 RMK AO2 SLP171 T02070183 10255 20207 50007 FZRANO $
RJTY 241136Z AUTO 16005KT 10SM R18/4500FT SCT020 SCT080 21/19 A3004 RMK AO2 SLP172 FZRANO $
RJTY 241126Z AUTO 17005KT 10SM R18/4500FT BKN020 21/19 A3005 RMK AO2 SLP175 FZRANO $
RJTY 241116Z AUTO 17005KT 10SM R18/4500FT OVC019 21/19 A3005 RMK AO2 SLP175 FZRANO $
RJTY 241106Z AUTO 17004KT 10SM R36/4500FT BKN020 BKN075 21/19 A3005 RMK AO2 CIG 017V075 CIG 018 RWY18 SLP175 FZRANO $
RJTY 241056Z AUTO 17005KT 10SM R18/4500FT BKN017 21/19 A3005 RMK AO2 SLP175 T02120186 FZRANO $
RJTY 241046Z AUTO 16005KT 10SM R18/4500FT BKN017 21/18 A3005 RMK AO2 BKN V SCT SLP176 FZRANO $
RJTY 240956Z AUTO 17005KT 10SM R18/4500FT FEW019 21/18 A3003 RMK AO2 SLP169 T02120180 FZRANO $
RJTY 240902Z AUTO 17008KT 10SM R18/4500FT SCT021 22/17 A3002 RMK AO2 SLP165 FZRANO $

TAF RJTY 241300Z 2413/2519 VRB06KT 9999 SCT015 BKN020 QNH3002INS
  BECMG 2500/2501 15009KT 9999 BKN020 QNH2998INS
  BECMG 2513/2514 VRB06KT 9999 SCT025 BKN200 QNH3000INS TX26/2506Z TN18/2418Z LAST NO AMDS AFT 2413 NEXT 2421